TimePST,TemperatureF,Dew PointF,Humidity,Sea Level PressureIn,VisibilityMPH,Wind Direction,Wind SpeedMPH,Gust SpeedMPH,PrecipitationIn,Events,Conditions,WindDirDegrees,DateUTC
12:55 AM,33.1,25.0,72,30.21,10.0,Calm,Calm,-,N/A,,Clear,0,2013-02-11 08:55:00
1:55 AM,30.0,24.1,79,30.21,10.0,Calm,Calm,-,N/A,,Clear,0,2013-02-11 09:55:00
2:55 AM,28.0,23.0,81,30.21,10.0,Calm,Calm,-,N/A,,Clear,0,2013-02-11 10:55:00
3:55 AM,28.0,23.0,81,30.20,10.0,Calm,Calm,-,N/A,,Clear,0,2013-02-11 11:55:00
4:55 AM,28.0,23.0,81,30.20,10.0,Calm,Calm,-,N/A,,Clear,0,2013-02-11 12:55:00
5:55 AM,27.0,23.0,85,30.22,10.0,Calm,Calm,-,N/A,,Clear,0,2013-02-11 13:55:00
6:55 AM,26.1,21.9,84,30.22,10.0,Calm,Calm,-,N/A,,Clear,0,2013-02-11 14:55:00
7:55 AM,27.0,23.0,85,30.23,10.0,Calm,Calm,-,N/A,,Clear,0,2013-02-11 15:55:00
8:55 AM,30.0,26.1,85,30.24,10.0,Calm,Calm,-,N/A,,Partly Cloudy,0,2013-02-11 16:55:00
9:55 AM,30.9,26.1,82,30.25,10.0,Calm,Calm,-,N/A,,Clear,0,2013-02-11 17:55:00
10:55 AM,34.0,27.0,75,30.25,10.0,Calm,Calm,-,N/A,,Clear,0,2013-02-11 18:55:00
11:55 AM,36.0,27.0,70,30.25,10.0,Variable,4.6,-,N/A,,Clear,0,2013-02-11 19:55:00
12:55 PM,37.9,27.0,65,30.24,10.0,Variable,3.5,-,N/A,,Clear,0,2013-02-11 20:55:00
1:55 PM,37.9,27.0,65,30.22,10.0,East,3.5,-,N/A,,Clear,90,2013-02-11 21:55:00
2:55 PM,37.9,28.0,68,30.23,10.0,Calm,Calm,-,N/A,,Clear,0,2013-02-11 22:55:00
3:55 PM,37.9,28.0,68,30.23,10.0,Calm,Calm,-,N/A,,Clear,0,2013-02-11 23:55:00
4:55 PM,37.0,28.0,70,30.22,10.0,Calm,Calm,-,N/A,,Clear,0,2013-02-12 00:55:00
5:55 PM,35.1,28.0,76,30.23,10.0,East,4.6,-,N/A,,Scattered Clouds,100,2013-02-12 01:55:00
6:55 PM,33.1,27.0,78,30.25,10.0,East,5.8,-,N/A,,Clear,90,2013-02-12 02:55:00
7:55 PM,32.0,27.0,82,30.25,10.0,East,3.5,-,N/A,,Scattered Clouds,100,2013-02-12 03:55:00
8:55 PM,32.0,27.0,82,30.25,10.0,East,3.5,-,N/A,,Clear,100,2013-02-12 04:55:00
9:55 PM,32.0,27.0,82,30.26,10.0,Calm,Calm,-,N/A,,Clear,0,2013-02-12 05:55:00
10:55 PM,33.1,27.0,78,30.26,10.0,Calm,Calm,-,N/A,,Partly Cloudy,0,2013-02-12 06:55:00
11:55 PM,32.0,27.0,82,30.27,10.0,Calm,Calm,-,N/A,,Clear,0,2013-02-12 07:55:00